»·PEaware :: N1XC KSBD-KEMT

N1XC :: KSBD-KEMT

FLIGHT INFORMATION

Flight Status: Arrived
Operator: Privately registered:
United States
More flights under this callsign
Pilot: Adam S. (8156)
Aircraft: CESSNA T210 TURBO CENTURION
(T210)
More flights by this aircraft type
Origin: KSBD San Bernardino Intl
United States
Destination: KEMT El Monte
United States
More flights between these airports :: More routes between these airports
Route: +
File this flight plan on PilotEdge
Remarks: CAT7
Altitude:
(Current/Filed)
0ft
Speed:
(Current/Filed)
0kts
Departed: 27-Aug-17 05:57 PM
Arrived: 27-Aug-17 07:00 PM
Distance/Time
Traveled:
40nm/1:03
Distance/Time
To Go:
Arrived

Flight Plot

Page will automatically refresh every two minutes.


Map Options




Map Legend


Flown Route
Filed Route
Departure Airport
Arrival Airport
Navaid (VOR, NDB)
Fix

Horizontal Profiles

Position Reports

Time Latitude Longitude Heading Altitude Ground
Speed
27-Aug-17 17:58 34.101989 -117.220571 114 1133ft 11kts
27-Aug-17 17:59 34.100774 -117.219830 156 1133ft 0kts
27-Aug-17 18:00 34.100774 -117.219830 156 1133ft 0kts
27-Aug-17 18:01 34.096452 -117.231266 249 1246ft 96kts
27-Aug-17 18:02 34.095689 -117.267189 276 2574ft 115kts
27-Aug-17 18:03 34.098662 -117.303313 269 3818ft 106kts
27-Aug-17 18:04 34.099182 -117.338907 267 4972ft 107kts
27-Aug-17 18:05 34.098784 -117.375237 269 5950ft 122kts
27-Aug-17 18:06 34.096288 -117.428125 266 5352ft 187kts
27-Aug-17 18:07 34.091696 -117.491482 269 4506ft 194kts
27-Aug-17 18:08 34.095939 -117.550464 270 4537ft 174kts
27-Aug-17 18:09 34.094971 -117.607853 267 4553ft 169kts
27-Aug-17 18:10 34.094001 -117.657597 266 4549ft 150kts
27-Aug-17 18:11 34.093034 -117.703763 266 4540ft 147kts
27-Aug-17 18:12 34.092037 -117.754569 265 4203ft 158kts
27-Aug-17 18:13 34.091104 -117.803954 267 3714ft 158kts
27-Aug-17 18:14 34.089988 -117.853590 267 3121ft 158kts
27-Aug-17 18:15 34.088900 -117.904767 267 2513ft 156kts
27-Aug-17 18:16 34.087784 -117.955299 267 1910ft 154kts
27-Aug-17 18:17 34.119053 -117.974908 359 1669ft 146kts
27-Aug-17 18:18 34.153930 -117.976337 313 2003ft 105kts
27-Aug-17 18:19 34.148883 -118.003555 185 2014ft 117kts
27-Aug-17 18:20 34.141536 -117.970281 75 2177ft 126kts
27-Aug-17 18:21 34.158049 -117.968145 273 2264ft 111kts
27-Aug-17 18:22 34.143991 -118.000609 220 2039ft 130kts
27-Aug-17 18:23 34.115658 -118.018150 202 963ft 104kts
27-Aug-17 18:24 34.091505 -118.031700 203 344ft 88kts
27-Aug-17 18:39 34.101871 -117.225253 89 1133ft 0kts
27-Aug-17 18:40 34.101959 -117.220494 124 1133ft 8kts
27-Aug-17 18:41 34.100781 -117.219826 156 1133ft 0kts
27-Aug-17 18:42 34.100781 -117.219826 156 1133ft 0kts
27-Aug-17 18:43 34.099912 -117.219974 221 1133ft 23kts
27-Aug-17 18:44 34.092945 -117.244326 247 2041ft 98kts
27-Aug-17 18:45 34.094335 -117.276498 279 3597ft 101kts
27-Aug-17 18:46 34.097945 -117.313471 271 4492ft 151kts
27-Aug-17 18:47 34.123295 -117.318803 76 4844ft 178kts
27-Aug-17 18:48 34.104893 -117.282314 213 4655ft 189kts
27-Aug-17 18:49 34.089112 -117.335729 280 4769ft 177kts
27-Aug-17 18:50 34.097299 -117.394274 272 4651ft 179kts
27-Aug-17 18:51 34.097588 -117.454454 268 4465ft 179kts
27-Aug-17 18:52 34.096809 -117.512937 267 4467ft 172kts
27-Aug-17 18:53 34.095712 -117.570413 267 4467ft 172kts
27-Aug-17 18:54 34.094385 -117.625318 265 4470ft 161kts
27-Aug-17 18:55 34.093554 -117.674338 269 4085ft 164kts
27-Aug-17 18:56 34.092606 -117.726925 265 3555ft 163kts
27-Aug-17 18:57 34.091642 -117.780277 268 3033ft 162kts
27-Aug-17 18:58 34.090506 -117.830047 267 3033ft 142kts
27-Aug-17 18:59 34.089511 -117.876005 267 3038ft 139kts
27-Aug-17 19:00 34.098029 -117.920084 288 2872ft 145kts
27-Aug-17 19:01 34.109357 -117.961346 284 2118ft 133kts
27-Aug-17 19:02 34.117137 -117.997702 257 1452ft 101kts
27-Aug-17 19:03 34.103953 -118.024987 206 616ft 93kts
27-Aug-17 19:04 34.083522 -118.036274 188 294ft 18kts
27-Aug-17 19:05 34.083032 -118.036010 118 294ft 0kts
27-Aug-17 19:06 34.085701 -118.033943 26 294ft 0kts
27-Aug-17 19:07 34.115230 -118.005489 250 1168ft 108kts
27-Aug-17 19:08 34.098014 -118.028296 202 452ft 101kts
27-Aug-17 19:09 34.083033 -118.036013 117 294ft 0kts
27-Aug-17 19:10 34.083010 -118.035923 92 294ft 6kts
27-Aug-17 19:11 34.085700 -118.033943 26 294ft 0kts
27-Aug-17 19:12 34.085711 -118.033940 351 294ft 0kts
27-Aug-17 19:13 34.085711 -118.033940 351 294ft 0kts

Navigation Log

Ident Type
Flight plan parsing failed, navigation log unavailable